sensor_id;sensor_type;location;lat;lon;timestamp;temperature;humidity
13344;DHT22;6741;48.964;9.406;2023-12-04T00:01:11;-5.70;99.90
13344;DHT22;6741;48.964;9.406;2023-12-04T00:03:38;-5.70;99.90
13344;DHT22;6741;48.964;9.406;2023-12-04T00:06:07;-5.60;99.90
13344;DHT22;6741;48.964;9.406;2023-12-04T00:08:33;-5.60;99.90
13344;DHT22;6741;48.964;9.406;2023-12-04T00:11:00;-5.70;99.90
13344;DHT22;6741;48.964;9.406;2023-12-04T00:13:27;-5.70;99.90
13344;DHT22;6741;48.964;9.406;2023-12-04T00:15:54;-5.70;99.90
13344;DHT22;6741;48.964;9.406;2023-12-04T00:18:21;-5.80;99.90
13344;DHT22;6741;48.964;9.406;2023-12-04T00:20:48;-5.70;99.90
13344;DHT22;6741;48.964;9.406;2023-12-04T00:23:16;-5.60;99.90
13344;DHT22;6741;48.964;9.406;2023-12-04T00:25:43;-5.60;99.90
13344;DHT22;6741;48.964;9.406;2023-12-04T00:28:10;-5.60;99.90
13344;DHT22;6741;48.964;9.406;2023-12-04T00:30:37;-5.70;99.90
13344;DHT22;6741;48.964;9.406;2023-12-04T00:33:04;-5.70;99.90
13344;DHT22;6741;48.964;9.406;2023-12-04T00:35:31;-5.70;99.90
13344;DHT22;6741;48.964;9.406;2023-12-04T00:37:57;-5.70;99.90
13344;DHT22;6741;48.964;9.406;2023-12-04T00:40:26;-5.70;99.90
13344;DHT22;6741;48.964;9.406;2023-12-04T00:42:52;-5.70;99.90
13344;DHT22;6741;48.964;9.406;2023-12-04T00:45:19;-5.70;99.90
13344;DHT22;6741;48.964;9.406;2023-12-04T00:47:46;-5.70;99.90
13344;DHT22;6741;48.964;9.406;2023-12-04T00:50:13;-5.70;99.90
13344;DHT22;6741;48.964;9.406;2023-12-04T00:52:40;-5.70;99.90
13344;DHT22;6741;48.964;9.406;2023-12-04T00:55:07;-5.80;99.90
13344;DHT22;6741;48.964;9.406;2023-12-04T00:57:35;-5.70;99.90
13344;DHT22;6741;48.964;9.406;2023-12-04T01:00:03;-5.70;99.90
13344;DHT22;6741;48.964;9.406;2023-12-04T01:02:30;-5.70;99.90
13344;DHT22;6741;48.964;9.406;2023-12-04T01:04:57;-5.60;99.90
13344;DHT22;6741;48.964;9.406;2023-12-04T01:07:23;-5.70;99.90
13344;DHT22;6741;48.964;9.406;2023-12-04T01:09:50;-5.70;99.90
13344;DHT22;6741;48.964;9.406;2023-12-04T01:12:17;-5.70;99.90
13344;DHT22;6741;48.964;9.406;2023-12-04T01:14:45;-5.70;99.90
13344;DHT22;6741;48.964;9.406;2023-12-04T01:17:12;-5.70;99.90
13344;DHT22;6741;48.964;9.406;2023-12-04T01:19:39;-5.60;99.90
13344;DHT22;6741;48.964;9.406;2023-12-04T01:22:06;-5.60;99.90
13344;DHT22;6741;48.964;9.406;2023-12-04T01:24:33;-5.50;99.90
13344;DHT22;6741;48.964;9.406;2023-12-04T01:26:59;-5.50;99.90
13344;DHT22;6741;48.964;9.406;2023-12-04T01:29:26;-5.50;99.90
13344;DHT22;6741;48.964;9.406;2023-12-04T01:31:54;-5.50;99.90
13344;DHT22;6741;48.964;9.406;2023-12-04T01:34:21;-5.40;99.90
13344;DHT22;6741;48.964;9.406;2023-12-04T01:36:48;-5.50;99.90
13344;DHT22;6741;48.964;9.406;2023-12-04T01:39:15;-5.40;99.90
13344;DHT22;6741;48.964;9.406;2023-12-04T01:41:42;-5.40;99.90
13344;DHT22;6741;48.964;9.406;2023-12-04T01:44:09;-5.40;99.90
13344;DHT22;6741;48.964;9.406;2023-12-04T01:46:37;-5.50;99.90
13344;DHT22;6741;48.964;9.406;2023-12-04T01:49:05;-5.40;99.90
13344;DHT22;6741;48.964;9.406;2023-12-04T01:51:32;-5.40;99.90
13344;DHT22;6741;48.964;9.406;2023-12-04T01:53:59;-5.40;99.90
13344;DHT22;6741;48.964;9.406;2023-12-04T01:56:27;-5.40;99.90
13344;DHT22;6741;48.964;9.406;2023-12-04T01:58:53;-5.30;99.90
13344;DHT22;6741;48.964;9.406;2023-12-04T02:01:21;-5.30;99.90
13344;DHT22;6741;48.964;9.406;2023-12-04T02:03:48;-5.30;99.90
13344;DHT22;6741;48.964;9.406;2023-12-04T02:06:17;-5.20;99.90
13344;DHT22;6741;48.964;9.406;2023-12-04T02:08:46;-5.20;99.90
13344;DHT22;6741;48.964;9.406;2023-12-04T02:11:14;-5.10;99.90
13344;DHT22;6741;48.964;9.406;2023-12-04T02:13:40;-5.20;99.90
13344;DHT22;6741;48.964;9.406;2023-12-04T02:16:10;-5.20;99.90
13344;DHT22;6741;48.964;9.406;2023-12-04T02:18:37;-5.20;99.90
13344;DHT22;6741;48.964;9.406;2023-12-04T02:21:05;-5.20;99.90
13344;DHT22;6741;48.964;9.406;2023-12-04T02:23:33;-5.20;99.90
13344;DHT22;6741;48.964;9.406;2023-12-04T02:26:08;-5.20;99.90
13344;DHT22;6741;48.964;9.406;2023-12-04T02:28:36;-5.20;99.90
13344;DHT22;6741;48.964;9.406;2023-12-04T02:31:05;-5.20;99.90
13344;DHT22;6741;48.964;9.406;2023-12-04T02:33:33;-5.10;99.90
13344;DHT22;6741;48.964;9.406;2023-12-04T02:36:02;-5.10;99.90
13344;DHT22;6741;48.964;9.406;2023-12-04T02:38:30;-5.10;99.90
13344;DHT22;6741;48.964;9.406;2023-12-04T02:40:57;-5.10;99.90
13344;DHT22;6741;48.964;9.406;2023-12-04T02:43:25;-5.00;99.90
13344;DHT22;6741;48.964;9.406;2023-12-04T02:45:52;-5.00;99.90
13344;DHT22;6741;48.964;9.406;2023-12-04T02:48:19;-5.00;99.90
13344;DHT22;6741;48.964;9.406;2023-12-04T02:50:46;-4.90;99.90
13344;DHT22;6741;48.964;9.406;2023-12-04T02:53:14;-4.80;99.90
13344;DHT22;6741;48.964;9.406;2023-12-04T02:55:41;-4.70;99.90
13344;DHT22;6741;48.964;9.406;2023-12-04T02:58:08;-4.70;99.90
13344;DHT22;6741;48.964;9.406;2023-12-04T03:00:36;-4.70;99.90
13344;DHT22;6741;48.964;9.406;2023-12-04T03:03:03;-4.70;99.90
13344;DHT22;6741;48.964;9.406;2023-12-04T03:05:30;-4.70;99.90
13344;DHT22;6741;48.964;9.406;2023-12-04T03:07:57;-4.80;99.90
13344;DHT22;6741;48.964;9.406;2023-12-04T03:10:24;-4.80;99.90
13344;DHT22;6741;48.964;9.406;2023-12-04T03:12:50;-4.90;99.90
13344;DHT22;6741;48.964;9.406;2023-12-04T03:15:17;-4.90;99.90
13344;DHT22;6741;48.964;9.406;2023-12-04T03:17:46;-4.80;99.90
13344;DHT22;6741;48.964;9.406;2023-12-04T03:20:13;-4.80;99.90
13344;DHT22;6741;48.964;9.406;2023-12-04T03:22:40;-4.80;99.90
13344;DHT22;6741;48.964;9.406;2023-12-04T03:25:08;-4.80;99.90
13344;DHT22;6741;48.964;9.406;2023-12-04T03:27:35;-4.80;99.90
13344;DHT22;6741;48.964;9.406;2023-12-04T03:30:02;-4.70;99.90
13344;DHT22;6741;48.964;9.406;2023-12-04T03:32:29;-4.70;99.90
13344;DHT22;6741;48.964;9.406;2023-12-04T03:34:57;-4.80;99.90
13344;DHT22;6741;48.964;9.406;2023-12-04T03:37:24;-4.80;99.90
13344;DHT22;6741;48.964;9.406;2023-12-04T03:39:51;-4.80;99.90
13344;DHT22;6741;48.964;9.406;2023-12-04T03:42:18;-4.80;99.90
13344;DHT22;6741;48.964;9.406;2023-12-04T03:44:44;-4.80;99.90
13344;DHT22;6741;48.964;9.406;2023-12-04T03:47:11;-4.80;99.90
13344;DHT22;6741;48.964;9.406;2023-12-04T03:49:38;-4.80;99.90
13344;DHT22;6741;48.964;9.406;2023-12-04T03:52:06;-4.90;99.90
13344;DHT22;6741;48.964;9.406;2023-12-04T03:54:33;-4.80;99.90
13344;DHT22;6741;48.964;9.406;2023-12-04T03:57:00;-4.90;99.90
13344;DHT22;6741;48.964;9.406;2023-12-04T03:59:27;-4.90;99.90
13344;DHT22;6741;48.964;9.406;2023-12-04T04:01:54;-4.90;99.90
13344;DHT22;6741;48.964;9.406;2023-12-04T04:04:21;-5.00;99.90
13344;DHT22;6741;48.964;9.406;2023-12-04T04:06:48;-4.90;99.90
13344;DHT22;6741;48.964;9.406;2023-12-04T04:09:16;-4.90;99.90
13344;DHT22;6741;48.964;9.406;2023-12-04T04:11:45;-4.90;99.90
13344;DHT22;6741;48.964;9.406;2023-12-04T04:14:12;-4.90;99.90
13344;DHT22;6741;48.964;9.406;2023-12-04T04:16:39;-5.00;99.90
13344;DHT22;6741;48.964;9.406;2023-12-04T04:19:06;-5.00;99.90
13344;DHT22;6741;48.964;9.406;2023-12-04T04:21:33;-5.00;99.90
13344;DHT22;6741;48.964;9.406;2023-12-04T04:24:00;-5.00;99.90
13344;DHT22;6741;48.964;9.406;2023-12-04T04:26:28;-5.00;99.90
13344;DHT22;6741;48.964;9.406;2023-12-04T04:28:55;-4.90;99.90
13344;DHT22;6741;48.964;9.406;2023-12-04T04:31:22;-4.90;99.90
13344;DHT22;6741;48.964;9.406;2023-12-04T04:33:49;-4.80;99.90
13344;DHT22;6741;48.964;9.406;2023-12-04T04:36:15;-4.80;99.90
13344;DHT22;6741;48.964;9.406;2023-12-04T04:38:42;-4.80;99.90
13344;DHT22;6741;48.964;9.406;2023-12-04T04:41:13;-4.80;99.90
13344;DHT22;6741;48.964;9.406;2023-12-04T04:43:42;-4.80;99.90
13344;DHT22;6741;48.964;9.406;2023-12-04T04:46:09;-4.70;99.90
13344;DHT22;6741;48.964;9.406;2023-12-04T04:48:36;-4.70;99.90
13344;DHT22;6741;48.964;9.406;2023-12-04T04:51:03;-4.80;99.90
13344;DHT22;6741;48.964;9.406;2023-12-04T04:53:30;-4.70;99.90
13344;DHT22;6741;48.964;9.406;2023-12-04T04:55:57;-4.70;99.90
13344;DHT22;6741;48.964;9.406;2023-12-04T04:58:24;-4.80;99.90
13344;DHT22;6741;48.964;9.406;2023-12-04T05:00:52;-4.70;99.90
13344;DHT22;6741;48.964;9.406;2023-12-04T05:03:19;-4.70;99.90
13344;DHT22;6741;48.964;9.406;2023-12-04T05:05:46;-4.70;99.90
13344;DHT22;6741;48.964;9.406;2023-12-04T05:08:13;-4.70;99.90
13344;DHT22;6741;48.964;9.406;2023-12-04T05:10:39;-4.70;99.90
13344;DHT22;6741;48.964;9.406;2023-12-04T05:13:07;-4.60;99.90
13344;DHT22;6741;48.964;9.406;2023-12-04T05:15:34;-4.60;99.90
13344;DHT22;6741;48.964;9.406;2023-12-04T05:18:03;-4.70;99.90
13344;DHT22;6741;48.964;9.406;2023-12-04T05:20:30;-4.80;99.90
13344;DHT22;6741;48.964;9.406;2023-12-04T05:22:57;-4.80;99.90
13344;DHT22;6741;48.964;9.406;2023-12-04T05:25:24;-4.80;99.90
13344;DHT22;6741;48.964;9.406;2023-12-04T05:27:51;-4.80;99.90
13344;DHT22;6741;48.964;9.406;2023-12-04T05:30:18;-4.80;99.90
13344;DHT22;6741;48.964;9.406;2023-12-04T05:32:44;-4.80;99.90
13344;DHT22;6741;48.964;9.406;2023-12-04T05:35:14;-4.80;99.90
13344;DHT22;6741;48.964;9.406;2023-12-04T05:37:41;-4.80;99.90
13344;DHT22;6741;48.964;9.406;2023-12-04T05:40:09;-4.80;99.90
13344;DHT22;6741;48.964;9.406;2023-12-04T05:42:36;-4.80;99.90
13344;DHT22;6741;48.964;9.406;2023-12-04T05:45:04;-4.70;99.90
13344;DHT22;6741;48.964;9.406;2023-12-04T05:47:32;-4.70;99.90
13344;DHT22;6741;48.964;9.406;2023-12-04T05:50:00;-4.70;99.90
13344;DHT22;6741;48.964;9.406;2023-12-04T05:52:28;-4.70;99.90
13344;DHT22;6741;48.964;9.406;2023-12-04T05:54:56;-4.70;99.90
13344;DHT22;6741;48.964;9.406;2023-12-04T05:57:23;-4.70;99.90
13344;DHT22;6741;48.964;9.406;2023-12-04T05:59:49;-4.80;99.90
13344;DHT22;6741;48.964;9.406;2023-12-04T06:02:16;-4.80;99.90
13344;DHT22;6741;48.964;9.406;2023-12-04T06:04:43;-4.80;99.90
13344;DHT22;6741;48.964;9.406;2023-12-04T06:07:10;-4.80;99.90
13344;DHT22;6741;48.964;9.406;2023-12-04T06:09:38;-4.80;99.90
13344;DHT22;6741;48.964;9.406;2023-12-04T06:12:05;-4.90;99.90
13344;DHT22;6741;48.964;9.406;2023-12-04T06:14:35;-4.80;99.90
13344;DHT22;6741;48.964;9.406;2023-12-04T06:17:02;-4.90;99.90
13344;DHT22;6741;48.964;9.406;2023-12-04T06:19:31;-4.80;99.90
13344;DHT22;6741;48.964;9.406;2023-12-04T06:21:57;-4.80;99.90
13344;DHT22;6741;48.964;9.406;2023-12-04T06:24:25;-4.80;99.90
13344;DHT22;6741;48.964;9.406;2023-12-04T06:26:54;-4.80;99.90
13344;DHT22;6741;48.964;9.406;2023-12-04T06:29:21;-4.70;99.90
13344;DHT22;6741;48.964;9.406;2023-12-04T06:31:49;-4.70;99.90
13344;DHT22;6741;48.964;9.406;2023-12-04T06:34:16;-4.70;99.90
13344;DHT22;6741;48.964;9.406;2023-12-04T06:36:43;-4.80;99.90
13344;DHT22;6741;48.964;9.406;2023-12-04T06:39:11;-4.80;99.90
13344;DHT22;6741;48.964;9.406;2023-12-04T06:41:39;-4.70;99.90
13344;DHT22;6741;48.964;9.406;2023-12-04T06:44:09;-4.80;99.90
13344;DHT22;6741;48.964;9.406;2023-12-04T06:46:37;-4.80;99.90
13344;DHT22;6741;48.964;9.406;2023-12-04T06:49:05;-4.70;99.90
13344;DHT22;6741;48.964;9.406;2023-12-04T06:51:32;-4.70;99.90
13344;DHT22;6741;48.964;9.406;2023-12-04T06:53:59;-4.70;99.90
13344;DHT22;6741;48.964;9.406;2023-12-04T06:56:26;-5.00;99.90
13344;DHT22;6741;48.964;9.406;2023-12-04T06:58:53;-5.10;99.90
13344;DHT22;6741;48.964;9.406;2023-12-04T07:01:21;-5.00;99.90
13344;DHT22;6741;48.964;9.406;2023-12-04T07:03:48;-4.90;99.90
13344;DHT22;6741;48.964;9.406;2023-12-04T07:06:15;-4.80;99.90
13344;DHT22;6741;48.964;9.406;2023-12-04T07:08:42;-4.40;99.90
13344;DHT22;6741;48.964;9.406;2023-12-04T07:11:09;-4.40;99.90
13344;DHT22;6741;48.964;9.406;2023-12-04T07:13:40;-4.40;99.90
13344;DHT22;6741;48.964;9.406;2023-12-04T07:16:09;-4.50;99.90
13344;DHT22;6741;48.964;9.406;2023-12-04T07:18:37;-4.50;99.90
13344;DHT22;6741;48.964;9.406;2023-12-04T07:21:05;-4.50;99.90
13344;DHT22;6741;48.964;9.406;2023-12-04T07:23:32;-4.60;99.90
13344;DHT22;6741;48.964;9.406;2023-12-04T07:25:58;-4.60;99.90
13344;DHT22;6741;48.964;9.406;2023-12-04T07:28:25;-4.50;99.90
13344;DHT22;6741;48.964;9.406;2023-12-04T07:30:53;-4.50;99.90
13344;DHT22;6741;48.964;9.406;2023-12-04T07:33:20;-4.40;99.90
13344;DHT22;6741;48.964;9.406;2023-12-04T07:35:48;-4.40;99.90
13344;DHT22;6741;48.964;9.406;2023-12-04T07:38:16;-4.40;99.90
13344;DHT22;6741;48.964;9.406;2023-12-04T07:40:44;-4.30;99.90
13344;DHT22;6741;48.964;9.406;2023-12-04T07:43:11;-4.30;99.90
13344;DHT22;6741;48.964;9.406;2023-12-04T07:45:39;-4.30;99.90
13344;DHT22;6741;48.964;9.406;2023-12-04T07:48:07;-4.30;99.90
13344;DHT22;6741;48.964;9.406;2023-12-04T07:50:33;-4.20;99.90
13344;DHT22;6741;48.964;9.406;2023-12-04T07:53:02;-4.10;99.90
13344;DHT22;6741;48.964;9.406;2023-12-04T07:55:29;-4.00;99.90
13344;DHT22;6741;48.964;9.406;2023-12-04T07:57:56;-4.00;99.90
13344;DHT22;6741;48.964;9.406;2023-12-04T08:00:23;-4.00;99.90
13344;DHT22;6741;48.964;9.406;2023-12-04T08:02:51;-4.00;99.90
13344;DHT22;6741;48.964;9.406;2023-12-04T08:05:18;-3.80;99.90
13344;DHT22;6741;48.964;9.406;2023-12-04T08:07:44;-3.80;99.90
13344;DHT22;6741;48.964;9.406;2023-12-04T08:10:13;-3.60;99.90
13344;DHT22;6741;48.964;9.406;2023-12-04T08:12:40;-3.70;99.90
13344;DHT22;6741;48.964;9.406;2023-12-04T08:15:07;-3.70;99.90
13344;DHT22;6741;48.964;9.406;2023-12-04T08:17:34;-3.70;99.90
13344;DHT22;6741;48.964;9.406;2023-12-04T08:20:01;-3.70;99.90
13344;DHT22;6741;48.964;9.406;2023-12-04T08:22:29;-3.60;99.90
13344;DHT22;6741;48.964;9.406;2023-12-04T08:24:57;-3.50;99.90
13344;DHT22;6741;48.964;9.406;2023-12-04T08:27:26;-3.50;99.90
13344;DHT22;6741;48.964;9.406;2023-12-04T08:29:52;-3.40;99.90
13344;DHT22;6741;48.964;9.406;2023-12-04T08:32:19;-3.30;99.90
13344;DHT22;6741;48.964;9.406;2023-12-04T08:34:47;-3.30;99.90
13344;DHT22;6741;48.964;9.406;2023-12-04T08:37:14;-3.20;99.90
13344;DHT22;6741;48.964;9.406;2023-12-04T08:39:41;-3.20;99.90
13344;DHT22;6741;48.964;9.406;2023-12-04T08:42:08;-3.20;99.90
13344;DHT22;6741;48.964;9.406;2023-12-04T08:44:36;-3.00;99.90
13344;DHT22;6741;48.964;9.406;2023-12-04T08:47:04;-2.90;99.90
13344;DHT22;6741;48.964;9.406;2023-12-04T08:49:31;-2.80;99.90
13344;DHT22;6741;48.964;9.406;2023-12-04T08:51:59;-2.60;99.90
13344;DHT22;6741;48.964;9.406;2023-12-04T08:54:26;-2.60;99.90
13344;DHT22;6741;48.964;9.406;2023-12-04T08:56:53;-2.60;99.90
13344;DHT22;6741;48.964;9.406;2023-12-04T08:59:20;-2.70;99.90
13344;DHT22;6741;48.964;9.406;2023-12-04T09:01:49;-2.70;97.40
13344;DHT22;6741;48.964;9.406;2023-12-04T09:04:15;-2.70;99.90
13344;DHT22;6741;48.964;9.406;2023-12-04T09:06:42;-2.60;99.90
13344;DHT22;6741;48.964;9.406;2023-12-04T09:09:09;-2.50;93.20
13344;DHT22;6741;48.964;9.406;2023-12-04T09:11:40;-2.50;91.10
13344;DHT22;6741;48.964;9.406;2023-12-04T09:14:07;-2.40;93.20
13344;DHT22;6741;48.964;9.406;2023-12-04T09:16:34;-2.40;82.20
13344;DHT22;6741;48.964;9.406;2023-12-04T09:19:02;-2.40;71.80
13344;DHT22;6741;48.964;9.406;2023-12-04T09:21:29;-2.30;68.70
13344;DHT22;6741;48.964;9.406;2023-12-04T09:23:56;-2.20;60.80
13344;DHT22;6741;48.964;9.406;2023-12-04T09:26:23;-2.10;59.10
13344;DHT22;6741;48.964;9.406;2023-12-04T09:28:49;-2.00;58.90
13344;DHT22;6741;48.964;9.406;2023-12-04T09:31:16;-1.90;77.00
13344;DHT22;6741;48.964;9.406;2023-12-04T09:33:43;-1.90;86.40
13344;DHT22;6741;48.964;9.406;2023-12-04T09:36:11;-1.90;51.40
13344;DHT22;6741;48.964;9.406;2023-12-04T09:38:38;-1.90;48.60
13344;DHT22;6741;48.964;9.406;2023-12-04T09:41:06;-1.90;48.00
13344;DHT22;6741;48.964;9.406;2023-12-04T09:43:35;-1.80;90.30
13344;DHT22;6741;48.964;9.406;2023-12-04T09:46:03;-1.80;98.50
13344;DHT22;6741;48.964;9.406;2023-12-04T09:48:31;-1.80;47.10
13344;DHT22;6741;48.964;9.406;2023-12-04T09:50:59;-1.70;33.80
13344;DHT22;6741;48.964;9.406;2023-12-04T09:53:30;-1.70;33.90
13344;DHT22;6741;48.964;9.406;2023-12-04T09:55:59;-1.70;36.30
13344;DHT22;6741;48.964;9.406;2023-12-04T09:58:30;-1.70;52.80
13344;DHT22;6741;48.964;9.406;2023-12-04T10:00:58;-1.60;79.60
13344;DHT22;6741;48.964;9.406;2023-12-04T10:03:26;-1.50;65.50
13344;DHT22;6741;48.964;9.406;2023-12-04T10:05:54;-1.40;43.60
13344;DHT22;6741;48.964;9.406;2023-12-04T10:08:21;-1.50;24.50
13344;DHT22;6741;48.964;9.406;2023-12-04T10:10:49;-1.40;31.50
13344;DHT22;6741;48.964;9.406;2023-12-04T10:13:16;-1.40;24.50
13344;DHT22;6741;48.964;9.406;2023-12-04T10:15:46;-1.30;24.60
13344;DHT22;6741;48.964;9.406;2023-12-04T10:18:25;-1.20;99.90
13344;DHT22;6741;48.964;9.406;2023-12-04T10:20:52;-1.40;62.20
13344;DHT22;6741;48.964;9.406;2023-12-04T10:23:20;-1.50;40.20
13344;DHT22;6741;48.964;9.406;2023-12-04T10:25:49;-1.50;55.90
13344;DHT22;6741;48.964;9.406;2023-12-04T10:28:17;-1.40;49.60
13344;DHT22;6741;48.964;9.406;2023-12-04T10:30:45;-1.30;40.10
13344;DHT22;6741;48.964;9.406;2023-12-04T10:33:13;-1.30;25.50
13344;DHT22;6741;48.964;9.406;2023-12-04T10:35:40;-1.30;32.40
13344;DHT22;6741;48.964;9.406;2023-12-04T10:38:09;-1.20;45.00
13344;DHT22;6741;48.964;9.406;2023-12-04T10:40:36;-1.20;35.10
13344;DHT22;6741;48.964;9.406;2023-12-04T10:43:15;-0.60;99.90
13344;DHT22;6741;48.964;9.406;2023-12-04T10:45:44;-0.90;99.90
13344;DHT22;6741;48.964;9.406;2023-12-04T10:48:11;-1.00;70.40
13344;DHT22;6741;48.964;9.406;2023-12-04T10:50:40;-1.00;33.30
13344;DHT22;6741;48.964;9.406;2023-12-04T10:53:08;-1.10;28.40
13344;DHT22;6741;48.964;9.406;2023-12-04T10:55:36;-1.00;19.90
13344;DHT22;6741;48.964;9.406;2023-12-04T10:58:06;-1.00;27.80
13344;DHT22;6741;48.964;9.406;2023-12-04T11:00:36;-0.90;19.20
13344;DHT22;6741;48.964;9.406;2023-12-04T11:03:08;-0.90;28.30
13344;DHT22;6741;48.964;9.406;2023-12-04T11:05:39;-0.80;29.50
13344;DHT22;6741;48.964;9.406;2023-12-04T11:08:08;-0.60;99.90
13344;DHT22;6741;48.964;9.406;2023-12-04T11:10:41;-0.70;44.70
13344;DHT22;6741;48.964;9.406;2023-12-04T11:13:15;-0.70;25.60
13344;DHT22;6741;48.964;9.406;2023-12-04T11:15:47;-0.70;8.20
13344;DHT22;6741;48.964;9.406;2023-12-04T11:18:16;-0.70;5.50
13344;DHT22;6741;48.964;9.406;2023-12-04T11:20:51;-0.80;10.60
13344;DHT22;6741;48.964;9.406;2023-12-04T11:23:22;-0.80;8.50
13344;DHT22;6741;48.964;9.406;2023-12-04T11:25:50;-0.80;8.90
13344;DHT22;6741;48.964;9.406;2023-12-04T11:28:18;-0.80;20.90
13344;DHT22;6741;48.964;9.406;2023-12-04T11:30:47;-0.70;28.60
13344;DHT22;6741;48.964;9.406;2023-12-04T11:33:15;-0.40;99.90
13344;DHT22;6741;48.964;9.406;2023-12-04T11:35:42;-0.60;48.70
13344;DHT22;6741;48.964;9.406;2023-12-04T11:38:13;-0.80;25.20
13344;DHT22;6741;48.964;9.406;2023-12-04T11:40:41;-0.90;31.30
13344;DHT22;6741;48.964;9.406;2023-12-04T11:43:24;-0.80;29.90
13344;DHT22;6741;48.964;9.406;2023-12-04T11:45:53;-0.80;11.50
13344;DHT22;6741;48.964;9.406;2023-12-04T11:48:22;-0.80;19.10
13344;DHT22;6741;48.964;9.406;2023-12-04T11:50:50;-0.80;12.60
13344;DHT22;6741;48.964;9.406;2023-12-04T11:53:17;-0.90;20.60
13344;DHT22;6741;48.964;9.406;2023-12-04T11:55:46;-0.80;94.10
13344;DHT22;6741;48.964;9.406;2023-12-04T11:58:13;-0.70;99.90
13344;DHT22;6741;48.964;9.406;2023-12-04T12:00:42;-0.90;89.90
13344;DHT22;6741;48.964;9.406;2023-12-04T12:03:10;-1.00;84.00
13344;DHT22;6741;48.964;9.406;2023-12-04T12:05:41;-1.30;93.50
13344;DHT22;6741;48.964;9.406;2023-12-04T12:08:08;-1.20;99.90
13344;DHT22;6741;48.964;9.406;2023-12-04T12:10:35;-1.20;99.90
13344;DHT22;6741;48.964;9.406;2023-12-04T12:13:02;-1.20;99.90
13344;DHT22;6741;48.964;9.406;2023-12-04T12:15:31;-1.10;99.90
13344;DHT22;6741;48.964;9.406;2023-12-04T12:17:58;-1.00;99.90
13344;DHT22;6741;48.964;9.406;2023-12-04T12:20:26;-0.90;99.90
13344;DHT22;6741;48.964;9.406;2023-12-04T12:22:53;-0.80;99.90
13344;DHT22;6741;48.964;9.406;2023-12-04T12:25:20;-0.80;99.90
13344;DHT22;6741;48.964;9.406;2023-12-04T12:27:48;-0.80;99.90
13344;DHT22;6741;48.964;9.406;2023-12-04T12:30:18;-0.70;99.90
13344;DHT22;6741;48.964;9.406;2023-12-04T12:32:45;-0.70;99.90
13344;DHT22;6741;48.964;9.406;2023-12-04T12:35:21;-0.60;99.90
13344;DHT22;6741;48.964;9.406;2023-12-04T12:37:50;-0.50;99.90
13344;DHT22;6741;48.964;9.406;2023-12-04T12:40:20;-0.50;99.90
13344;DHT22;6741;48.964;9.406;2023-12-04T12:42:47;-0.40;99.90
13344;DHT22;6741;48.964;9.406;2023-12-04T12:45:14;-0.40;99.90
13344;DHT22;6741;48.964;9.406;2023-12-04T12:47:42;-0.50;99.90
13344;DHT22;6741;48.964;9.406;2023-12-04T12:50:09;-0.50;99.90
13344;DHT22;6741;48.964;9.406;2023-12-04T12:52:39;-0.50;99.90
13344;DHT22;6741;48.964;9.406;2023-12-04T12:55:08;-0.50;99.90
13344;DHT22;6741;48.964;9.406;2023-12-04T12:57:35;-0.60;99.90
13344;DHT22;6741;48.964;9.406;2023-12-04T13:00:02;-0.50;99.90
13344;DHT22;6741;48.964;9.406;2023-12-04T13:02:34;-0.30;99.90
13344;DHT22;6741;48.964;9.406;2023-12-04T13:05:02;-0.40;99.90
13344;DHT22;6741;48.964;9.406;2023-12-04T13:07:30;-0.40;99.90
13344;DHT22;6741;48.964;9.406;2023-12-04T13:09:57;-0.40;99.90
13344;DHT22;6741;48.964;9.406;2023-12-04T13:12:25;-0.40;99.90
13344;DHT22;6741;48.964;9.406;2023-12-04T13:14:52;-0.50;99.90
13344;DHT22;6741;48.964;9.406;2023-12-04T13:17:19;-0.40;99.90
13344;DHT22;6741;48.964;9.406;2023-12-04T13:19:46;-0.40;99.90
13344;DHT22;6741;48.964;9.406;2023-12-04T13:22:13;-0.40;99.90
13344;DHT22;6741;48.964;9.406;2023-12-04T13:24:40;-0.40;99.90
13344;DHT22;6741;48.964;9.406;2023-12-04T13:27:07;-0.30;99.90
13344;DHT22;6741;48.964;9.406;2023-12-04T13:29:36;-0.20;99.90
13344;DHT22;6741;48.964;9.406;2023-12-04T13:32:03;-0.20;99.90
13344;DHT22;6741;48.964;9.406;2023-12-04T13:34:33;-0.10;99.90
13344;DHT22;6741;48.964;9.406;2023-12-04T13:37:00;-0.20;99.90
13344;DHT22;6741;48.964;9.406;2023-12-04T13:39:27;-0.10;99.90
13344;DHT22;6741;48.964;9.406;2023-12-04T13:42:13;-0.10;99.90
13344;DHT22;6741;48.964;9.406;2023-12-04T13:44:59;0.00;99.90
13344;DHT22;6741;48.964;9.406;2023-12-04T13:47:26;0.00;99.90
13344;DHT22;6741;48.964;9.406;2023-12-04T13:49:53;-0.10;99.90
13344;DHT22;6741;48.964;9.406;2023-12-04T13:52:21;-0.10;99.90
13344;DHT22;6741;48.964;9.406;2023-12-04T13:54:49;0.00;99.90
13344;DHT22;6741;48.964;9.406;2023-12-04T13:57:18;0.00;99.90
13344;DHT22;6741;48.964;9.406;2023-12-04T13:59:48;-0.10;99.90
13344;DHT22;6741;48.964;9.406;2023-12-04T14:02:16;0.00;99.90
13344;DHT22;6741;48.964;9.406;2023-12-04T14:04:43;0.20;99.90
13344;DHT22;6741;48.964;9.406;2023-12-04T14:07:10;-0.10;99.90
13344;DHT22;6741;48.964;9.406;2023-12-04T14:09:38;-0.10;99.90
13344;DHT22;6741;48.964;9.406;2023-12-04T14:12:06;-0.10;99.90
13344;DHT22;6741;48.964;9.406;2023-12-04T14:14:33;-0.10;99.90
13344;DHT22;6741;48.964;9.406;2023-12-04T14:17:00;-0.10;99.90
13344;DHT22;6741;48.964;9.406;2023-12-04T14:19:30;-0.10;99.90
13344;DHT22;6741;48.964;9.406;2023-12-04T14:21:57;-0.10;99.90
13344;DHT22;6741;48.964;9.406;2023-12-04T14:24:24;-0.10;99.90
13344;DHT22;6741;48.964;9.406;2023-12-04T14:26:51;-0.20;99.90
13344;DHT22;6741;48.964;9.406;2023-12-04T14:29:19;-0.20;99.90
13344;DHT22;6741;48.964;9.406;2023-12-04T14:31:46;-0.10;99.90
13344;DHT22;6741;48.964;9.406;2023-12-04T14:34:16;0.00;99.90
13344;DHT22;6741;48.964;9.406;2023-12-04T14:36:53;-0.10;99.90
13344;DHT22;6741;48.964;9.406;2023-12-04T14:39:20;0.00;99.90
13344;DHT22;6741;48.964;9.406;2023-12-04T14:41:47;0.00;99.90
13344;DHT22;6741;48.964;9.406;2023-12-04T14:44:14;-0.10;99.90
13344;DHT22;6741;48.964;9.406;2023-12-04T14:46:42;0.00;99.90
13344;DHT22;6741;48.964;9.406;2023-12-04T14:49:09;-0.10;99.90
13344;DHT22;6741;48.964;9.406;2023-12-04T14:51:36;-0.10;99.90
13344;DHT22;6741;48.964;9.406;2023-12-04T14:54:05;-0.20;99.90
13344;DHT22;6741;48.964;9.406;2023-12-04T14:56:53;-0.10;99.90
13344;DHT22;6741;48.964;9.406;2023-12-04T14:59:49;-0.10;99.90
13344;DHT22;6741;48.964;9.406;2023-12-04T15:02:36;-0.10;99.90
13344;DHT22;6741;48.964;9.406;2023-12-04T15:05:43;-0.10;99.90
13344;DHT22;6741;48.964;9.406;2023-12-04T15:08:29;-0.20;99.90
13344;DHT22;6741;48.964;9.406;2023-12-04T15:11:20;-0.20;99.90
13344;DHT22;6741;48.964;9.406;2023-12-04T15:14:09;-0.20;99.90
13344;DHT22;6741;48.964;9.406;2023-12-04T15:16:45;-0.20;99.90
13344;DHT22;6741;48.964;9.406;2023-12-04T15:19:18;-0.10;99.90
13344;DHT22;6741;48.964;9.406;2023-12-04T15:22:00;-0.10;99.90
13344;DHT22;6741;48.964;9.406;2023-12-04T15:24:36;0.00;99.90
13344;DHT22;6741;48.964;9.406;2023-12-04T15:27:10;-0.10;99.90
13344;DHT22;6741;48.964;9.406;2023-12-04T15:29:40;0.00;99.90
13344;DHT22;6741;48.964;9.406;2023-12-04T15:32:16;0.10;99.90
13344;DHT22;6741;48.964;9.406;2023-12-04T15:34:43;0.00;99.90
13344;DHT22;6741;48.964;9.406;2023-12-04T15:37:09;0.00;99.90
13344;DHT22;6741;48.964;9.406;2023-12-04T15:40:29;0.10;99.90
13344;DHT22;6741;48.964;9.406;2023-12-04T15:42:55;0.00;99.90
13344;DHT22;6741;48.964;9.406;2023-12-04T15:45:22;0.00;99.90
13344;DHT22;6741;48.964;9.406;2023-12-04T15:48:00;0.00;99.90
13344;DHT22;6741;48.964;9.406;2023-12-04T15:50:28;-0.10;99.90
13344;DHT22;6741;48.964;9.406;2023-12-04T15:52:54;-0.10;99.90
13344;DHT22;6741;48.964;9.406;2023-12-04T15:55:23;-0.10;99.90